• Join FlightAware (Why Join?)
  • Login
  • US Flag 
05:57PM EDT


 

Airport Tracker/Info


-or-


 

Live Flight TrackerFlight Track Log ✈ N858PB ✈ 21-Aug-2013 ✈ KDSM - KDVN

Flight Track Log - Related Links

Times and Time Zones

All times are in EDT time to prevent confusion due to time zone crossing. See the N858PB flight status page for this flight to view local times or setup timezone preferences in your user account.

Time Position Orientation Groundspeed Altitude Reporting Facility
EDT Latitude Longitude Course Direction KTS MPH feet Rate Location/Type
06:25PM 41.5328 -93.6619 195° South 121 139 1,500  Level Minneapolis Center
06:26PM 41.5122 -93.6694 195° South 127 146 2,200 1,020 Climbing Minneapolis Center
06:27PM 41.4883 -93.6514 150° Southeast 137 158 2,900 840 Climbing Minneapolis Center
06:28PM 41.4756 -93.5989 108° East 151 174 3,800 960 Climbing Minneapolis Center
06:29PM 41.4803 -93.5372 84° East 156 180 4,900 1,020 Climbing Minneapolis Center
06:30PM 41.4894 -93.4769 79° East 161 185 5,800 840 Climbing Minneapolis Center
06:31PM 41.4867 -93.4153 93° East 167 192 6,700 540 Climbing Minneapolis Center
06:32PM 41.4903 -93.3500 86° East 175 201 7,000 120 Climbing Minneapolis Center
06:33PM 41.4944 -93.2703 86° East 199 229 7,000  Level Minneapolis Center
06:34PM 41.5042 -93.1781 82° East 209 241 7,100  Climbing Minneapolis Center
06:35PM 41.5042 -93.1064 90° East 214 246 7,000 -60 Descending Minneapolis Center
06:36PM 41.5089 -93.0094 86° East 214 246 7,000  Level Minneapolis Center
06:37PM 41.5131 -92.9244 86° East 214 246 7,000  Level Minneapolis Center
06:38PM 41.5169 -92.8406 86° East 212 244 7,000  Level Minneapolis Center
06:39PM 41.5214 -92.7625 86° East 212 244 7,000  Level Minneapolis Center
06:40PM 41.5258 -92.6775 86° East 213 245 7,000  Level Minneapolis Center
06:41PM 41.5289 -92.5992 87° East 213 245 7,000  Level Minneapolis Center
06:42PM 41.5322 -92.5003 87° East 213 245 7,100  Climbing Chicago Center
06:43PM 41.5372 -92.4219 85° East 214 246 7,100  Level Chicago Center
06:45PM 41.5394 -92.3436 88° East 213 245 7,100  Level Chicago Center
06:46PM 41.5436 -92.2672 86° East 211 243 7,100  Level Chicago Center
06:47PM 41.5472 -92.1739 87° East 211 243 7,100  Level Chicago Center
06:48PM 41.5519 -92.0972 85° East 211 243 7,100  Level Chicago Center
06:49PM 41.5553 -92.0183 87° East 212 244 7,100  Level Chicago Center
06:50PM 41.5597 -91.9433 85° East 210 242 7,100 -120 Level Chicago Center
06:51PM 41.5619 -91.8647 88° East 213 245 6,900 -480 Descending Chicago Center
06:52PM 41.5667 -91.7642 86° East 227 261 6,200 -660 Descending Chicago Center
06:53PM 41.5706 -91.6786 86° East 233 268 5,600 -540 Descending Chicago Center
06:54PM 41.5739 -91.5950 87° East 230 265 5,100 -300 Descending Chicago Center
06:55PM 41.5761 -91.5156 88° East 219 252 5,100  Level Chicago Center
06:56PM 41.5794 -91.4389 87° East 211 243 5,100  Level Chicago Center
06:57PM 41.5831 -91.3458 87° East 212 244 5,100  Level Chicago Center
06:58PM 41.5869 -91.2683 86° East 212 244 5,100  Level Chicago Center
06:59PM 41.5906 -91.1908 86° East 211 243 5,100  Level Chicago Center
07:00PM 41.5925 -91.1156 88° East 208 239 5,100 -420 Level Chicago Center
07:01PM 41.5961 -91.0194 87° East 215 247 4,300 -780 Descending Chicago Center
07:02PM 41.5994 -90.9419 87° East 213 245 3,600 -660 Descending Chicago Center
07:03PM 41.6025 -90.8592 87° East 210 242 3,000 -480 Descending Chicago Center
07:04PM 41.6044 -90.7894 88° East 209 241 2,700 -300 Descending Chicago Center
07:06PM 41.6015 -90.6866 92° East  Level FlightAware Approximate
07:13PM 41.6000 -90.5833 90° East  Level FlightAware Approximate
07:14PM 41.6103 -90.5884 90° East  Level Estimated
07:15PM 41.6103 -90.5884 90° East  Level Estimated